sensor_id;sensor_type;location;lat;lon;timestamp;pressure;altitude;pressure_sealevel;temperature;humidity
21096;BME280;10706;49.036;12.112;2022-09-09T00:07:47;97504.22;;;13.74;99.87
21096;BME280;10706;49.036;12.112;2022-09-09T00:10:29;97506.63;;;13.70;100.00
21096;BME280;10706;49.036;12.112;2022-09-09T00:19:07;97501.53;;;13.69;99.86
21096;BME280;10706;49.036;12.112;2022-09-09T00:21:39;97503.38;;;13.63;100.00
21096;BME280;10706;49.036;12.112;2022-09-09T00:30:21;97494.75;;;13.56;100.00
21096;BME280;10706;49.036;12.112;2022-09-09T00:32:59;97487.22;;;13.53;100.00
21096;BME280;10706;49.036;12.112;2022-09-09T00:35:58;97491.78;;;13.52;99.92
21096;BME280;10706;49.036;12.112;2022-09-09T00:38:36;97495.00;;;13.54;100.00
21096;BME280;10706;49.036;12.112;2022-09-09T00:41:57;97493.41;;;13.53;100.00
21096;BME280;10706;49.036;12.112;2022-09-09T00:44:34;97498.78;;;13.58;100.00
21096;BME280;10706;49.036;12.112;2022-09-09T00:47:38;97500.41;;;13.59;100.00
21096;BME280;10706;49.036;12.112;2022-09-09T00:53:22;97502.84;;;13.66;100.00
21096;BME280;10706;49.036;12.112;2022-09-09T00:56:18;97500.69;;;13.68;100.00
21096;BME280;10706;49.036;12.112;2022-09-09T01:02:41;97501.25;;;13.65;100.00
21096;BME280;10706;49.036;12.112;2022-09-09T01:07:52;97506.84;;;13.64;100.00
21096;BME280;10706;49.036;12.112;2022-09-09T01:10:47;97509.84;;;13.67;100.00
21096;BME280;10706;49.036;12.112;2022-09-09T01:13:35;97511.97;;;13.65;100.00
21096;BME280;10706;49.036;12.112;2022-09-09T01:16:08;97503.09;;;13.59;100.00
21096;BME280;10706;49.036;12.112;2022-09-09T01:18:51;97505.47;;;13.56;100.00
21096;BME280;10706;49.036;12.112;2022-09-09T01:24:32;97513.81;;;13.59;100.00
21096;BME280;10706;49.036;12.112;2022-09-09T01:27:02;97513.28;;;13.57;100.00
21096;BME280;10706;49.036;12.112;2022-09-09T01:29:30;97505.19;;;13.52;100.00
21096;BME280;10706;49.036;12.112;2022-09-09T01:32:03;97501.44;;;13.53;100.00
21096;BME280;10706;49.036;12.112;2022-09-09T01:34:47;97496.34;;;13.52;100.00
21096;BME280;10706;49.036;12.112;2022-09-09T01:37:13;97501.41;;;13.48;100.00
21096;BME280;10706;49.036;12.112;2022-09-09T01:39:42;97496.06;;;13.48;100.00
21096;BME280;10706;49.036;12.112;2022-09-09T01:42:12;97492.28;;;13.49;100.00
21096;BME280;10706;49.036;12.112;2022-09-09T01:44:39;97497.09;;;13.47;100.00
21096;BME280;10706;49.036;12.112;2022-09-09T01:47:06;97490.41;;;13.45;100.00
21096;BME280;10706;49.036;12.112;2022-09-09T01:49:32;97492.81;;;13.46;100.00
21096;BME280;10706;49.036;12.112;2022-09-09T01:51:59;97499.00;;;13.47;100.00
21096;BME280;10706;49.036;12.112;2022-09-09T01:54:29;97492.81;;;13.46;100.00
21096;BME280;10706;49.036;12.112;2022-09-09T01:57:27;97497.66;;;13.44;100.00
21096;BME280;10706;49.036;12.112;2022-09-09T02:05:49;97500.53;;;13.37;100.00
21096;BME280;10706;49.036;12.112;2022-09-09T02:08:47;97499.69;;;13.32;100.00
21096;BME280;10706;49.036;12.112;2022-09-09T02:11:20;97505.06;;;13.32;100.00
21096;BME280;10706;49.036;12.112;2022-09-09T02:13:49;97504.75;;;13.28;100.00
21096;BME280;10706;49.036;12.112;2022-09-09T02:16:32;97507.66;;;13.27;100.00
21096;BME280;10706;49.036;12.112;2022-09-09T02:19:46;97509.25;;;13.22;100.00
21096;BME280;10706;49.036;12.112;2022-09-09T02:22:17;97508.72;;;13.20;100.00
21096;BME280;10706;49.036;12.112;2022-09-09T02:24:45;97517.84;;;13.19;100.00
21096;BME280;10706;49.036;12.112;2022-09-09T02:27:12;97515.41;;;13.18;100.00
21096;BME280;10706;49.036;12.112;2022-09-09T02:29:41;97513.53;;;13.18;100.00
21096;BME280;10706;49.036;12.112;2022-09-09T02:32:21;97514.06;;;13.20;100.00
21096;BME280;10706;49.036;12.112;2022-09-09T02:34:54;97503.09;;;13.22;100.00
21096;BME280;10706;49.036;12.112;2022-09-09T02:37:25;97514.66;;;13.28;100.00
21096;BME280;10706;49.036;12.112;2022-09-09T02:39:54;97508.22;;;13.29;100.00
21096;BME280;10706;49.036;12.112;2022-09-09T02:42:20;97508.00;;;13.30;100.00
21096;BME280;10706;49.036;12.112;2022-09-09T02:44:46;97498.09;;;13.31;100.00
21096;BME280;10706;49.036;12.112;2022-09-09T02:50:24;97504.25;;;13.31;100.00
21096;BME280;10706;49.036;12.112;2022-09-09T02:53:08;97510.19;;;13.33;100.00
21096;BME280;10706;49.036;12.112;2022-09-09T02:56:11;97507.00;;;13.36;100.00
21096;BME280;10706;49.036;12.112;2022-09-09T02:58:41;97493.28;;;13.38;100.00
21096;BME280;10706;49.036;12.112;2022-09-09T03:01:07;97506.44;;;13.39;100.00
21096;BME280;10706;49.036;12.112;2022-09-09T03:03:34;97505.66;;;13.39;100.00
21096;BME280;10706;49.036;12.112;2022-09-09T03:06:00;97504.56;;;13.40;100.00
21096;BME280;10706;49.036;12.112;2022-09-09T03:08:26;97498.94;;;13.41;100.00
21096;BME280;10706;49.036;12.112;2022-09-09T03:10:54;97494.44;;;13.47;100.00
21096;BME280;10706;49.036;12.112;2022-09-09T03:13:20;97497.66;;;13.49;100.00
21096;BME280;10706;49.036;12.112;2022-09-09T03:15:48;97500.31;;;13.44;100.00
21096;BME280;10706;49.036;12.112;2022-09-09T03:18:14;97500.88;;;13.46;100.00
21096;BME280;10706;49.036;12.112;2022-09-09T03:20:40;97493.06;;;13.45;100.00
21096;BME280;10706;49.036;12.112;2022-09-09T03:23:07;97492.28;;;13.44;100.00
21096;BME280;10706;49.036;12.112;2022-09-09T03:25:33;97507.25;;;13.40;100.00
21096;BME280;10706;49.036;12.112;2022-09-09T03:27:59;97502.16;;;13.38;100.00
21096;BME280;10706;49.036;12.112;2022-09-09T03:30:27;97509.97;;;13.45;100.00
21096;BME280;10706;49.036;12.112;2022-09-09T03:32:54;97506.50;;;13.45;100.00
21096;BME280;10706;49.036;12.112;2022-09-09T03:35:21;97507.31;;;13.50;99.61
21096;BME280;10706;49.036;12.112;2022-09-09T03:37:47;97511.56;;;13.41;99.83
21096;BME280;10706;49.036;12.112;2022-09-09T03:40:13;97509.38;;;13.33;99.21
21096;BME280;10706;49.036;12.112;2022-09-09T03:42:39;97509.66;;;13.36;99.18
21096;BME280;10706;49.036;12.112;2022-09-09T03:45:08;97504.31;;;13.41;99.54
21096;BME280;10706;49.036;12.112;2022-09-09T03:47:35;97504.56;;;13.35;99.15
21096;BME280;10706;49.036;12.112;2022-09-09T03:50:01;97506.75;;;13.43;99.46
21096;BME280;10706;49.036;12.112;2022-09-09T03:52:26;97506.69;;;13.33;98.76
21096;BME280;10706;49.036;12.112;2022-09-09T03:54:53;97503.72;;;13.34;98.41
21096;BME280;10706;49.036;12.112;2022-09-09T03:57:20;97502.38;;;13.32;99.20
21096;BME280;10706;49.036;12.112;2022-09-09T03:59:47;97498.56;;;13.28;98.65
21096;BME280;10706;49.036;12.112;2022-09-09T04:02:12;97504.03;;;13.38;99.34
21096;BME280;10706;49.036;12.112;2022-09-09T04:04:38;97492.19;;;13.34;98.84
21096;BME280;10706;49.036;12.112;2022-09-09T04:07:04;97492.75;;;13.31;98.87
21096;BME280;10706;49.036;12.112;2022-09-09T04:09:32;97505.34;;;13.35;99.31
21096;BME280;10706;49.036;12.112;2022-09-09T04:11:58;97502.63;;;13.30;98.43
21096;BME280;10706;49.036;12.112;2022-09-09T04:14:24;97512.78;;;13.28;99.05
21096;BME280;10706;49.036;12.112;2022-09-09T04:16:53;97503.19;;;13.32;99.87
21096;BME280;10706;49.036;12.112;2022-09-09T04:19:19;97498.09;;;13.31;98.48
21096;BME280;10706;49.036;12.112;2022-09-09T04:21:44;97501.75;;;13.25;98.16
21096;BME280;10706;49.036;12.112;2022-09-09T04:24:10;97500.94;;;13.19;98.35
21096;BME280;10706;49.036;12.112;2022-09-09T04:26:37;97499.81;;;13.15;98.80
21096;BME280;10706;49.036;12.112;2022-09-09T04:29:05;97503.06;;;13.17;98.86
21096;BME280;10706;49.036;12.112;2022-09-09T04:31:33;97498.25;;;13.19;98.81
21096;BME280;10706;49.036;12.112;2022-09-09T04:33:58;97506.03;;;13.20;98.95
21096;BME280;10706;49.036;12.112;2022-09-09T04:36:27;97494.50;;;13.20;98.55
21096;BME280;10706;49.036;12.112;2022-09-09T04:38:53;97500.47;;;13.27;98.37
21096;BME280;10706;49.036;12.112;2022-09-09T04:41:19;97505.00;;;13.27;98.42
21096;BME280;10706;49.036;12.112;2022-09-09T04:43:45;97496.31;;;13.47;98.88
21096;BME280;10706;49.036;12.112;2022-09-09T04:46:10;97499.03;;;13.52;98.30
21096;BME280;10706;49.036;12.112;2022-09-09T04:48:36;97497.41;;;13.51;97.95
21096;BME280;10706;49.036;12.112;2022-09-09T04:51:05;97491.16;;;13.40;98.57
21096;BME280;10706;49.036;12.112;2022-09-09T04:53:32;97497.28;;;13.30;97.45
21096;BME280;10706;49.036;12.112;2022-09-09T04:56:12;97492.75;;;13.31;97.89
21096;BME280;10706;49.036;12.112;2022-09-09T04:58:39;97497.56;;;13.34;97.84
21096;BME280;10706;49.036;12.112;2022-09-09T05:01:14;97498.69;;;13.43;97.42
21096;BME280;10706;49.036;12.112;2022-09-09T05:03:40;97484.97;;;13.34;97.85
21096;BME280;10706;49.036;12.112;2022-09-09T05:06:09;97484.69;;;13.36;97.58
21096;BME280;10706;49.036;12.112;2022-09-09T05:08:40;97477.78;;;13.45;97.63
21096;BME280;10706;49.036;12.112;2022-09-09T05:11:19;97488.22;;;13.36;96.90
21096;BME280;10706;49.036;12.112;2022-09-09T05:13:46;97484.09;;;13.29;97.25
21096;BME280;10706;49.036;12.112;2022-09-09T05:16:13;97486.38;;;13.42;96.84
21096;BME280;10706;49.036;12.112;2022-09-09T05:18:40;97489.28;;;13.35;97.25
21096;BME280;10706;49.036;12.112;2022-09-09T05:21:07;97495.47;;;13.41;97.39
21096;BME280;10706;49.036;12.112;2022-09-09T05:23:34;97494.09;;;13.33;97.02
21096;BME280;10706;49.036;12.112;2022-09-09T05:26:00;97498.16;;;13.41;96.94
21096;BME280;10706;49.036;12.112;2022-09-09T05:28:27;97504.13;;;13.53;96.68
21096;BME280;10706;49.036;12.112;2022-09-09T05:31:05;97501.09;;;13.39;96.44
21096;BME280;10706;49.036;12.112;2022-09-09T05:33:34;97499.31;;;13.55;96.07
21096;BME280;10706;49.036;12.112;2022-09-09T05:36:07;97503.72;;;13.82;95.76
21096;BME280;10706;49.036;12.112;2022-09-09T05:38:34;97506.72;;;13.91;95.44
21096;BME280;10706;49.036;12.112;2022-09-09T05:41:01;97503.25;;;13.95;93.95
21096;BME280;10706;49.036;12.112;2022-09-09T05:43:28;97519.34;;;13.95;93.70
21096;BME280;10706;49.036;12.112;2022-09-09T05:46:12;97527.44;;;14.00;92.96
21096;BME280;10706;49.036;12.112;2022-09-09T05:48:43;97526.69;;;14.20;92.33
21096;BME280;10706;49.036;12.112;2022-09-09T05:51:11;97533.97;;;14.25;92.65
21096;BME280;10706;49.036;12.112;2022-09-09T05:53:38;97533.38;;;14.13;92.37
21096;BME280;10706;49.036;12.112;2022-09-09T05:56:07;97522.88;;;14.11;92.67
21096;BME280;10706;49.036;12.112;2022-09-09T05:58:36;97530.44;;;14.14;91.50
21096;BME280;10706;49.036;12.112;2022-09-09T06:01:05;97531.47;;;14.03;91.75
21096;BME280;10706;49.036;12.112;2022-09-09T06:03:34;97535.00;;;14.14;92.00
21096;BME280;10706;49.036;12.112;2022-09-09T06:06:03;97529.88;;;14.02;91.58
21096;BME280;10706;49.036;12.112;2022-09-09T06:08:34;97540.06;;;14.05;92.06
21096;BME280;10706;49.036;12.112;2022-09-09T06:11:21;97539.53;;;14.08;91.66
21096;BME280;10706;49.036;12.112;2022-09-09T06:13:48;97534.09;;;13.88;92.76
21096;BME280;10706;49.036;12.112;2022-09-09T06:16:18;97531.84;;;13.69;93.52
21096;BME280;10706;49.036;12.112;2022-09-09T06:18:44;97532.38;;;13.71;93.04
21096;BME280;10706;49.036;12.112;2022-09-09T06:21:34;97537.88;;;13.49;94.12
21096;BME280;10706;49.036;12.112;2022-09-09T06:24:03;97540.59;;;13.54;94.12
21096;BME280;10706;49.036;12.112;2022-09-09T06:26:35;97532.00;;;13.52;93.37
21096;BME280;10706;49.036;12.112;2022-09-09T06:29:02;97534.50;;;13.64;93.31
21096;BME280;10706;49.036;12.112;2022-09-09T06:31:32;97530.00;;;13.75;93.37
21096;BME280;10706;49.036;12.112;2022-09-09T06:34:00;97537.22;;;13.69;93.51
21096;BME280;10706;49.036;12.112;2022-09-09T06:36:32;97531.91;;;13.79;93.23
21096;BME280;10706;49.036;12.112;2022-09-09T06:38:59;97538.16;;;13.95;92.46
21096;BME280;10706;49.036;12.112;2022-09-09T06:41:28;97544.91;;;14.08;91.31
21096;BME280;10706;49.036;12.112;2022-09-09T06:43:55;97535.03;;;14.19;91.08
21096;BME280;10706;49.036;12.112;2022-09-09T06:46:29;97533.47;;;14.44;90.95
21096;BME280;10706;49.036;12.112;2022-09-09T06:48:56;97539.41;;;14.56;89.41
21096;BME280;10706;49.036;12.112;2022-09-09T06:51:31;97534.03;;;14.56;89.25
21096;BME280;10706;49.036;12.112;2022-09-09T06:54:00;97533.56;;;14.64;89.74
21096;BME280;10706;49.036;12.112;2022-09-09T06:56:30;97547.00;;;14.80;89.24
21096;BME280;10706;49.036;12.112;2022-09-09T06:58:59;97540.00;;;14.68;88.53
21096;BME280;10706;49.036;12.112;2022-09-09T07:01:38;97543.22;;;14.81;89.74
21096;BME280;10706;49.036;12.112;2022-09-09T07:04:06;97546.47;;;14.93;88.27
21096;BME280;10706;49.036;12.112;2022-09-09T07:06:43;97531.72;;;15.06;87.94
21096;BME280;10706;49.036;12.112;2022-09-09T07:09:12;97536.22;;;15.46;87.03
21096;BME280;10706;49.036;12.112;2022-09-09T07:11:48;97542.66;;;15.81;85.64
21096;BME280;10706;49.036;12.112;2022-09-09T07:14:14;97549.06;;;15.96;85.56
21096;BME280;10706;49.036;12.112;2022-09-09T07:16:42;97551.97;;;16.09;84.94
21096;BME280;10706;49.036;12.112;2022-09-09T07:19:08;97552.44;;;16.27;84.06
21096;BME280;10706;49.036;12.112;2022-09-09T07:21:34;97557.63;;;16.08;83.10
21096;BME280;10706;49.036;12.112;2022-09-09T07:24:01;97561.09;;;16.24;83.21
21096;BME280;10706;49.036;12.112;2022-09-09T07:26:29;97567.19;;;16.40;81.93
21096;BME280;10706;49.036;12.112;2022-09-09T07:28:56;97566.72;;;16.27;82.27
21096;BME280;10706;49.036;12.112;2022-09-09T07:31:35;97558.00;;;16.46;82.30
21096;BME280;10706;49.036;12.112;2022-09-09T07:34:03;97562.13;;;16.78;82.47
21096;BME280;10706;49.036;12.112;2022-09-09T07:36:38;97567.53;;;17.17;80.31
21096;BME280;10706;49.036;12.112;2022-09-09T07:39:08;97572.50;;;17.05;80.48
21096;BME280;10706;49.036;12.112;2022-09-09T07:41:40;97581.78;;;16.88;80.04
21096;BME280;10706;49.036;12.112;2022-09-09T07:44:12;97587.47;;;16.82;80.64
21096;BME280;10706;49.036;12.112;2022-09-09T07:46:39;97593.50;;;16.63;81.30
21096;BME280;10706;49.036;12.112;2022-09-09T07:49:05;97597.53;;;16.66;81.49
21096;BME280;10706;49.036;12.112;2022-09-09T07:51:37;97607.94;;;16.33;83.02
21096;BME280;10706;49.036;12.112;2022-09-09T07:54:07;97611.22;;;16.15;84.08
21096;BME280;10706;49.036;12.112;2022-09-09T07:56:34;97612.38;;;15.78;85.57
21096;BME280;10706;49.036;12.112;2022-09-09T07:59:00;97616.41;;;15.44;87.38
21096;BME280;10706;49.036;12.112;2022-09-09T08:01:30;97606.16;;;15.05;88.67
21096;BME280;10706;49.036;12.112;2022-09-09T08:04:06;97601.06;;;14.93;89.82
21096;BME280;10706;49.036;12.112;2022-09-09T08:06:42;97609.91;;;14.94;90.96
21096;BME280;10706;49.036;12.112;2022-09-09T08:09:09;97621.97;;;14.71;91.92
21096;BME280;10706;49.036;12.112;2022-09-09T08:11:35;97621.41;;;14.64;92.25
21096;BME280;10706;49.036;12.112;2022-09-09T08:14:02;97618.66;;;14.48;93.04
21096;BME280;10706;49.036;12.112;2022-09-09T08:16:32;97616.19;;;14.36;93.16
21096;BME280;10706;49.036;12.112;2022-09-09T08:18:59;97611.59;;;14.32;93.63
21096;BME280;10706;49.036;12.112;2022-09-09T08:21:28;97621.03;;;14.34;94.43
21096;BME280;10706;49.036;12.112;2022-09-09T08:23:57;97618.34;;;14.34;94.08
21096;BME280;10706;49.036;12.112;2022-09-09T08:26:32;97630.94;;;14.34;94.50
21096;BME280;10706;49.036;12.112;2022-09-09T08:29:00;97624.22;;;14.31;95.29
21096;BME280;10706;49.036;12.112;2022-09-09T08:31:42;97622.34;;;14.32;94.51
21096;BME280;10706;49.036;12.112;2022-09-09T08:34:09;97625.84;;;14.32;94.39
21096;BME280;10706;49.036;12.112;2022-09-09T08:36:38;97619.44;;;14.44;95.44
21096;BME280;10706;49.036;12.112;2022-09-09T08:39:07;97615.97;;;14.53;95.79
21096;BME280;10706;49.036;12.112;2022-09-09T08:42:00;97612.53;;;14.58;95.18
21096;BME280;10706;49.036;12.112;2022-09-09T08:45:01;97614.16;;;14.69;95.03
21096;BME280;10706;49.036;12.112;2022-09-09T08:47:41;97615.47;;;14.56;93.30
21096;BME280;10706;49.036;12.112;2022-09-09T08:50:19;97618.47;;;14.65;93.45
21096;BME280;10706;49.036;12.112;2022-09-09T08:55:57;97623.38;;;14.89;94.71
21096;BME280;10706;49.036;12.112;2022-09-09T08:58:32;97628.47;;;14.95;93.24
21096;BME280;10706;49.036;12.112;2022-09-09T09:01:50;97632.00;;;15.37;93.81
21096;BME280;10706;49.036;12.112;2022-09-09T09:07:59;97621.25;;;15.73;89.58
21096;BME280;10706;49.036;12.112;2022-09-09T09:10:49;97619.59;;;16.08;89.97
21096;BME280;10706;49.036;12.112;2022-09-09T09:16:40;97630.84;;;16.25;88.00
21096;BME280;10706;49.036;12.112;2022-09-09T09:19:14;97632.06;;;16.59;86.75
21096;BME280;10706;49.036;12.112;2022-09-09T09:27:40;97612.66;;;17.46;83.49
21096;BME280;10706;49.036;12.112;2022-09-09T09:30:21;97611.66;;;17.66;82.36
21096;BME280;10706;49.036;12.112;2022-09-09T09:33:00;97609.56;;;17.92;80.93
21096;BME280;10706;49.036;12.112;2022-09-09T09:35:27;97613.63;;;17.26;79.72
21096;BME280;10706;49.036;12.112;2022-09-09T09:37:53;97628.03;;;16.56;83.04
21096;BME280;10706;49.036;12.112;2022-09-09T09:40:22;97625.34;;;16.61;83.04
21096;BME280;10706;49.036;12.112;2022-09-09T09:42:58;97614.81;;;16.60;84.92
21096;BME280;10706;49.036;12.112;2022-09-09T09:45:44;97604.50;;;17.17;85.91
21096;BME280;10706;49.036;12.112;2022-09-09T09:48:14;97605.63;;;17.16;83.00
21096;BME280;10706;49.036;12.112;2022-09-09T09:50:56;97604.06;;;17.68;83.30
21096;BME280;10706;49.036;12.112;2022-09-09T09:53:34;97592.81;;;17.90;80.81
21096;BME280;10706;49.036;12.112;2022-09-09T09:58:33;97603.41;;;18.35;81.91
21096;BME280;10706;49.036;12.112;2022-09-09T10:01:00;97606.53;;;18.47;79.07
21096;BME280;10706;49.036;12.112;2022-09-09T10:03:35;97595.78;;;18.18;79.12
21096;BME280;10706;49.036;12.112;2022-09-09T10:06:03;97598.16;;;18.68;77.63
21096;BME280;10706;49.036;12.112;2022-09-09T10:08:34;97593.88;;;19.37;76.20
21096;BME280;10706;49.036;12.112;2022-09-09T10:14:21;97589.81;;;19.21;71.69
21096;BME280;10706;49.036;12.112;2022-09-09T10:17:04;97583.09;;;18.99;74.26
21096;BME280;10706;49.036;12.112;2022-09-09T10:19:37;97594.34;;;18.88;72.69
21096;BME280;10706;49.036;12.112;2022-09-09T10:22:28;97594.16;;;18.17;75.75
21096;BME280;10706;49.036;12.112;2022-09-09T10:36:25;97588.22;;;18.82;74.44
21096;BME280;10706;49.036;12.112;2022-09-09T10:39:28;97589.44;;;18.71;76.04
21096;BME280;10706;49.036;12.112;2022-09-09T10:47:44;97598.34;;;18.71;74.00
21096;BME280;10706;49.036;12.112;2022-09-09T10:55:57;97597.94;;;19.21;73.12
21096;BME280;10706;49.036;12.112;2022-09-09T10:58:35;97586.19;;;19.45;73.46
21096;BME280;10706;49.036;12.112;2022-09-09T11:01:27;97599.22;;;19.23;72.00
21096;BME280;10706;49.036;12.112;2022-09-09T11:04:01;97587.56;;;19.09;72.31
21096;BME280;10706;49.036;12.112;2022-09-09T11:06:35;97600.44;;;18.55;72.02
21096;BME280;10706;49.036;12.112;2022-09-09T11:09:03;97589.91;;;18.35;74.39
21096;BME280;10706;49.036;12.112;2022-09-09T11:11:42;97595.88;;;18.32;74.19
21096;BME280;10706;49.036;12.112;2022-09-09T11:14:28;97585.22;;;18.40;74.80
21096;BME280;10706;49.036;12.112;2022-09-09T11:17:01;97582.53;;;18.40;75.00
21096;BME280;10706;49.036;12.112;2022-09-09T11:19:35;97582.84;;;18.77;75.99
21096;BME280;10706;49.036;12.112;2022-09-09T11:22:33;97578.41;;;19.24;75.56
21096;BME280;10706;49.036;12.112;2022-09-09T11:30:48;97576.78;;;19.23;72.46
21096;BME280;10706;49.036;12.112;2022-09-09T11:33:47;97577.22;;;19.30;72.59
21096;BME280;10706;49.036;12.112;2022-09-09T11:36:48;97574.56;;;19.25;73.26
21096;BME280;10706;49.036;12.112;2022-09-09T11:42:20;97590.88;;;19.39;72.38
21096;BME280;10706;49.036;12.112;2022-09-09T11:44:46;97581.03;;;19.76;72.89
21096;BME280;10706;49.036;12.112;2022-09-09T11:47:25;97587.72;;;20.11;71.35
21096;BME280;10706;49.036;12.112;2022-09-09T11:50:08;97580.09;;;20.27;72.29
21096;BME280;10706;49.036;12.112;2022-09-09T11:52:41;97582.91;;;20.22;70.16
21096;BME280;10706;49.036;12.112;2022-09-09T11:55:29;97582.00;;;19.99;69.15
21096;BME280;10706;49.036;12.112;2022-09-09T12:00:44;97567.50;;;20.95;67.17
21096;BME280;10706;49.036;12.112;2022-09-09T12:03:50;97560.25;;;21.50;66.14
21096;BME280;10706;49.036;12.112;2022-09-09T12:06:31;97563.66;;;21.96;63.84
21096;BME280;10706;49.036;12.112;2022-09-09T12:14:58;97558.78;;;20.85;68.20
21096;BME280;10706;49.036;12.112;2022-09-09T12:17:36;97555.78;;;20.86;67.39
21096;BME280;10706;49.036;12.112;2022-09-09T12:23:18;97559.47;;;20.54;67.47
21096;BME280;10706;49.036;12.112;2022-09-09T12:26:14;97557.03;;;20.66;66.54
21096;BME280;10706;49.036;12.112;2022-09-09T12:32:11;97551.38;;;21.67;64.06
21096;BME280;10706;49.036;12.112;2022-09-09T12:34:52;97543.00;;;21.54;64.12
21096;BME280;10706;49.036;12.112;2022-09-09T12:37:38;97547.16;;;21.29;63.95
21096;BME280;10706;49.036;12.112;2022-09-09T12:40:23;97547.91;;;20.48;66.06
21096;BME280;10706;49.036;12.112;2022-09-09T12:42:50;97540.41;;;19.76;68.50
21096;BME280;10706;49.036;12.112;2022-09-09T12:45:25;97534.81;;;19.86;70.53
21096;BME280;10706;49.036;12.112;2022-09-09T12:47:56;97537.91;;;19.79;70.82
21096;BME280;10706;49.036;12.112;2022-09-09T12:50:33;97527.22;;;19.55;71.92
21096;BME280;10706;49.036;12.112;2022-09-09T12:53:23;97532.84;;;19.59;72.41
21096;BME280;10706;49.036;12.112;2022-09-09T12:58:25;97524.00;;;18.69;76.54
21096;BME280;10706;49.036;12.112;2022-09-09T13:00:55;97514.13;;;18.78;76.52
21096;BME280;10706;49.036;12.112;2022-09-09T13:03:26;97522.25;;;18.78;77.00
21096;BME280;10706;49.036;12.112;2022-09-09T13:05:53;97506.00;;;18.78;75.51
21096;BME280;10706;49.036;12.112;2022-09-09T13:08:24;97504.72;;;18.75;73.45
21096;BME280;10706;49.036;12.112;2022-09-09T13:11:03;97495.25;;;18.73;72.93
21096;BME280;10706;49.036;12.112;2022-09-09T13:13:40;97493.56;;;18.77;72.82
21096;BME280;10706;49.036;12.112;2022-09-09T13:16:31;97486.94;;;18.69;73.11
21096;BME280;10706;49.036;12.112;2022-09-09T13:19:00;97483.22;;;18.84;73.93
21096;BME280;10706;49.036;12.112;2022-09-09T13:21:39;97481.75;;;19.25;72.22
21096;BME280;10706;49.036;12.112;2022-09-09T13:24:40;97470.91;;;19.25;71.55
21096;BME280;10706;49.036;12.112;2022-09-09T13:27:29;97467.84;;;19.59;71.19
21096;BME280;10706;49.036;12.112;2022-09-09T13:29:56;97479.00;;;19.99;70.95
21096;BME280;10706;49.036;12.112;2022-09-09T13:32:24;97464.69;;;20.21;69.65
21096;BME280;10706;49.036;12.112;2022-09-09T13:34:56;97461.22;;;20.43;68.26
21096;BME280;10706;49.036;12.112;2022-09-09T13:37:36;97459.56;;;20.33;69.79
21096;BME280;10706;49.036;12.112;2022-09-09T13:40:04;97462.19;;;20.25;70.64
21096;BME280;10706;49.036;12.112;2022-09-09T13:42:34;97453.16;;;20.52;70.07
21096;BME280;10706;49.036;12.112;2022-09-09T13:45:05;97447.97;;;20.78;68.28
21096;BME280;10706;49.036;12.112;2022-09-09T13:47:36;97452.38;;;20.74;69.39
21096;BME280;10706;49.036;12.112;2022-09-09T13:50:26;97454.22;;;20.42;66.88
21096;BME280;10706;49.036;12.112;2022-09-09T13:52:55;97458.78;;;20.55;68.28
21096;BME280;10706;49.036;12.112;2022-09-09T13:55:23;97455.88;;;20.52;68.21
21096;BME280;10706;49.036;12.112;2022-09-09T13:57:56;97463.84;;;20.34;67.51
21096;BME280;10706;49.036;12.112;2022-09-09T14:00:23;97458.91;;;20.50;65.48
21096;BME280;10706;49.036;12.112;2022-09-09T14:02:52;97453.84;;;20.21;60.75
21096;BME280;10706;49.036;12.112;2022-09-09T14:05:19;97461.81;;;20.04;61.93
21096;BME280;10706;49.036;12.112;2022-09-09T14:07:46;97451.19;;;20.07;62.47
21096;BME280;10706;49.036;12.112;2022-09-09T14:10:12;97460.25;;;20.25;63.30
21096;BME280;10706;49.036;12.112;2022-09-09T14:12:38;97451.56;;;20.51;64.19
21096;BME280;10706;49.036;12.112;2022-09-09T14:15:06;97452.47;;;20.24;61.18
21096;BME280;10706;49.036;12.112;2022-09-09T14:17:33;97448.41;;;20.35;61.61
21096;BME280;10706;49.036;12.112;2022-09-09T14:19:59;97447.78;;;20.38;61.54
21096;BME280;10706;49.036;12.112;2022-09-09T14:22:25;97447.91;;;20.33;61.13
21096;BME280;10706;49.036;12.112;2022-09-09T14:24:51;97446.31;;;20.54;61.78
21096;BME280;10706;49.036;12.112;2022-09-09T14:27:17;97448.38;;;20.71;60.48
21096;BME280;10706;49.036;12.112;2022-09-09T14:29:44;97443.63;;;20.77;59.37
21096;BME280;10706;49.036;12.112;2022-09-09T14:32:11;97444.59;;;20.72;59.76
21096;BME280;10706;49.036;12.112;2022-09-09T14:34:37;97445.19;;;20.69;60.38
21096;BME280;10706;49.036;12.112;2022-09-09T14:37:03;97442.66;;;20.73;60.73
21096;BME280;10706;49.036;12.112;2022-09-09T14:39:29;97443.94;;;20.75;61.86
21096;BME280;10706;49.036;12.112;2022-09-09T14:41:56;97440.06;;;20.90;59.37
21096;BME280;10706;49.036;12.112;2022-09-09T14:44:21;97439.44;;;20.93;58.84
21096;BME280;10706;49.036;12.112;2022-09-09T14:46:47;97436.81;;;21.11;59.07
21096;BME280;10706;49.036;12.112;2022-09-09T14:49:16;97440.31;;;21.03;58.87
21096;BME280;10706;49.036;12.112;2022-09-09T14:51:41;97437.22;;;20.95;58.59
21096;BME280;10706;49.036;12.112;2022-09-09T14:54:07;97438.47;;;20.53;58.23
21096;BME280;10706;49.036;12.112;2022-09-09T14:56:34;97442.28;;;20.66;59.18
21096;BME280;10706;49.036;12.112;2022-09-09T14:59:00;97439.47;;;20.57;58.60
21096;BME280;10706;49.036;12.112;2022-09-09T15:01:27;97439.47;;;20.71;59.35
21096;BME280;10706;49.036;12.112;2022-09-09T15:03:59;97444.09;;;20.56;59.27
21096;BME280;10706;49.036;12.112;2022-09-09T15:06:29;97436.13;;;20.37;60.05
21096;BME280;10706;49.036;12.112;2022-09-09T15:08:56;97439.59;;;20.29;60.12